sensor_id;sensor_type;location;lat;lon;timestamp;temperature;humidity
69595;DHT22;56800;52.142;5.364;2023-02-22T00:01:40;8.00;81.50
69595;DHT22;56800;52.142;5.364;2023-02-22T00:04:17;8.00;81.40
69595;DHT22;56800;52.142;5.364;2023-02-22T00:06:47;7.90;81.40
69595;DHT22;56800;52.142;5.364;2023-02-22T00:09:15;7.90;81.30
69595;DHT22;56800;52.142;5.364;2023-02-22T00:11:47;7.90;81.50
69595;DHT22;56800;52.142;5.364;2023-02-22T00:14:15;7.90;81.70
69595;DHT22;56800;52.142;5.364;2023-02-22T00:16:45;7.90;81.80
69595;DHT22;56800;52.142;5.364;2023-02-22T00:19:12;7.90;81.70
69595;DHT22;56800;52.142;5.364;2023-02-22T00:21:38;7.90;81.80
69595;DHT22;56800;52.142;5.364;2023-02-22T00:24:05;7.90;81.90
69595;DHT22;56800;52.142;5.364;2023-02-22T00:26:52;7.90;81.70
69595;DHT22;56800;52.142;5.364;2023-02-22T00:29:25;7.90;81.60
69595;DHT22;56800;52.142;5.364;2023-02-22T00:31:52;7.90;81.60
69595;DHT22;56800;52.142;5.364;2023-02-22T00:34:19;7.90;81.60
69595;DHT22;56800;52.142;5.364;2023-02-22T00:36:47;7.90;81.50
69595;DHT22;56800;52.142;5.364;2023-02-22T00:39:14;7.90;81.50
69595;DHT22;56800;52.142;5.364;2023-02-22T00:41:41;7.90;81.50
69595;DHT22;56800;52.142;5.364;2023-02-22T00:44:08;7.90;81.60
69595;DHT22;56800;52.142;5.364;2023-02-22T00:46:34;7.90;81.60
69595;DHT22;56800;52.142;5.364;2023-02-22T00:49:01;7.80;81.50
69595;DHT22;56800;52.142;5.364;2023-02-22T00:51:29;7.90;81.60
69595;DHT22;56800;52.142;5.364;2023-02-22T00:53:55;7.80;81.60
69595;DHT22;56800;52.142;5.364;2023-02-22T00:56:22;7.80;81.60
69595;DHT22;56800;52.142;5.364;2023-02-22T00:58:49;7.90;81.50
69595;DHT22;56800;52.142;5.364;2023-02-22T01:01:15;7.90;81.60
69595;DHT22;56800;52.142;5.364;2023-02-22T01:03:42;7.80;81.50
69595;DHT22;56800;52.142;5.364;2023-02-22T01:06:09;7.80;82.30
69595;DHT22;56800;52.142;5.364;2023-02-22T01:08:36;7.80;81.50
69595;DHT22;56800;52.142;5.364;2023-02-22T01:11:03;7.80;81.50
69595;DHT22;56800;52.142;5.364;2023-02-22T01:13:29;7.80;81.50
69595;DHT22;56800;52.142;5.364;2023-02-22T01:15:56;7.80;81.40
69595;DHT22;56800;52.142;5.364;2023-02-22T01:18:23;7.80;81.40
69595;DHT22;56800;52.142;5.364;2023-02-22T01:20:51;7.70;81.50
69595;DHT22;56800;52.142;5.364;2023-02-22T01:23:17;7.80;81.50
69595;DHT22;56800;52.142;5.364;2023-02-22T01:25:44;7.70;81.60
69595;DHT22;56800;52.142;5.364;2023-02-22T01:28:11;7.70;81.60
69595;DHT22;56800;52.142;5.364;2023-02-22T01:30:39;7.70;81.40
69595;DHT22;56800;52.142;5.364;2023-02-22T01:33:06;7.70;81.40
69595;DHT22;56800;52.142;5.364;2023-02-22T01:35:35;7.70;81.30
69595;DHT22;56800;52.142;5.364;2023-02-22T01:38:02;7.60;81.30
69595;DHT22;56800;52.142;5.364;2023-02-22T01:40:35;7.60;81.40
69595;DHT22;56800;52.142;5.364;2023-02-22T01:43:15;7.60;81.40
69595;DHT22;56800;52.142;5.364;2023-02-22T01:46:27;7.60;81.30
69595;DHT22;56800;52.142;5.364;2023-02-22T01:48:44;7.50;81.30
69595;DHT22;56800;52.142;5.364;2023-02-22T01:51:21;7.50;81.40
69595;DHT22;56800;52.142;5.364;2023-02-22T01:53:53;7.50;81.60
69595;DHT22;56800;52.142;5.364;2023-02-22T01:56:22;7.50;81.60
69595;DHT22;56800;52.142;5.364;2023-02-22T01:58:53;7.50;81.50
69595;DHT22;56800;52.142;5.364;2023-02-22T02:01:22;7.50;81.40
69595;DHT22;56800;52.142;5.364;2023-02-22T02:03:51;7.50;81.20
69595;DHT22;56800;52.142;5.364;2023-02-22T02:06:20;7.40;81.20
69595;DHT22;56800;52.142;5.364;2023-02-22T02:11:21;7.40;81.30
69595;DHT22;56800;52.142;5.364;2023-02-22T02:13:52;7.40;81.30
69595;DHT22;56800;52.142;5.364;2023-02-22T02:16:23;7.30;81.10
69595;DHT22;56800;52.142;5.364;2023-02-22T02:18:51;7.30;81.00
69595;DHT22;56800;52.142;5.364;2023-02-22T02:24:20;7.20;81.10
69595;DHT22;56800;52.142;5.364;2023-02-22T02:34:56;7.20;81.40
69595;DHT22;56800;52.142;5.364;2023-02-22T02:37:37;7.20;81.10
69595;DHT22;56800;52.142;5.364;2023-02-22T02:42:54;7.10;81.20
69595;DHT22;56800;52.142;5.364;2023-02-22T02:45:28;7.10;81.10
69595;DHT22;56800;52.142;5.364;2023-02-22T02:47:57;7.10;81.10
69595;DHT22;56800;52.142;5.364;2023-02-22T02:50:32;7.10;81.20
69595;DHT22;56800;52.142;5.364;2023-02-22T02:53:04;7.10;81.00
69595;DHT22;56800;52.142;5.364;2023-02-22T02:55:34;7.00;80.90
69595;DHT22;56800;52.142;5.364;2023-02-22T02:58:04;7.00;81.10
69595;DHT22;56800;52.142;5.364;2023-02-22T03:00:34;7.00;81.10
69595;DHT22;56800;52.142;5.364;2023-02-22T03:11:19;7.00;80.90
69595;DHT22;56800;52.142;5.364;2023-02-22T03:16:45;6.90;80.90
69595;DHT22;56800;52.142;5.364;2023-02-22T03:19:35;6.80;80.70
69595;DHT22;56800;52.142;5.364;2023-02-22T03:22:36;6.80;80.80
69595;DHT22;56800;52.142;5.364;2023-02-22T03:25:02;6.80;81.00
69595;DHT22;56800;52.142;5.364;2023-02-22T03:27:39;6.80;80.90
69595;DHT22;56800;52.142;5.364;2023-02-22T03:30:20;6.70;80.80
69595;DHT22;56800;52.142;5.364;2023-02-22T03:32:53;6.70;80.80
69595;DHT22;56800;52.142;5.364;2023-02-22T03:35:24;6.60;80.90
69595;DHT22;56800;52.142;5.364;2023-02-22T03:37:56;6.60;81.10
69595;DHT22;56800;52.142;5.364;2023-02-22T03:40:29;6.60;81.30
69595;DHT22;56800;52.142;5.364;2023-02-22T03:43:06;6.60;81.10
69595;DHT22;56800;52.142;5.364;2023-02-22T03:45:34;6.60;81.00
69595;DHT22;56800;52.142;5.364;2023-02-22T03:48:07;6.60;81.20
69595;DHT22;56800;52.142;5.364;2023-02-22T03:50:37;6.60;81.30
69595;DHT22;56800;52.142;5.364;2023-02-22T03:53:04;6.60;81.20
69595;DHT22;56800;52.142;5.364;2023-02-22T03:55:30;6.60;81.10
69595;DHT22;56800;52.142;5.364;2023-02-22T03:57:59;6.50;81.00
69595;DHT22;56800;52.142;5.364;2023-02-22T04:00:29;6.50;81.10
69595;DHT22;56800;52.142;5.364;2023-02-22T04:02:57;6.50;81.00
69595;DHT22;56800;52.142;5.364;2023-02-22T04:05:24;6.50;81.20
69595;DHT22;56800;52.142;5.364;2023-02-22T04:07:52;6.50;81.30
69595;DHT22;56800;52.142;5.364;2023-02-22T04:10:19;6.50;81.20
69595;DHT22;56800;52.142;5.364;2023-02-22T04:12:46;6.50;81.40
69595;DHT22;56800;52.142;5.364;2023-02-22T04:15:15;6.40;81.20
69595;DHT22;56800;52.142;5.364;2023-02-22T04:17:42;6.50;81.30
69595;DHT22;56800;52.142;5.364;2023-02-22T04:20:09;6.50;81.30
69595;DHT22;56800;52.142;5.364;2023-02-22T04:22:39;6.40;81.40
69595;DHT22;56800;52.142;5.364;2023-02-22T04:25:06;6.40;81.50
69595;DHT22;56800;52.142;5.364;2023-02-22T04:27:33;6.40;81.50
69595;DHT22;56800;52.142;5.364;2023-02-22T04:30:00;6.40;81.60
69595;DHT22;56800;52.142;5.364;2023-02-22T04:32:26;6.40;81.60
69595;DHT22;56800;52.142;5.364;2023-02-22T04:34:53;6.40;81.60
69595;DHT22;56800;52.142;5.364;2023-02-22T04:37:20;6.40;81.60
69595;DHT22;56800;52.142;5.364;2023-02-22T04:39:47;6.40;81.70
69595;DHT22;56800;52.142;5.364;2023-02-22T04:42:13;6.40;81.70
69595;DHT22;56800;52.142;5.364;2023-02-22T04:44:40;6.40;82.50
69595;DHT22;56800;52.142;5.364;2023-02-22T04:47:07;6.40;81.60
69595;DHT22;56800;52.142;5.364;2023-02-22T04:49:33;6.40;81.60
69595;DHT22;56800;52.142;5.364;2023-02-22T04:52:03;6.40;81.60
69595;DHT22;56800;52.142;5.364;2023-02-22T04:54:30;6.30;81.60
69595;DHT22;56800;52.142;5.364;2023-02-22T04:56:56;6.30;81.80
69595;DHT22;56800;52.142;5.364;2023-02-22T04:59:23;6.30;81.80
69595;DHT22;56800;52.142;5.364;2023-02-22T05:01:50;6.30;82.00
69595;DHT22;56800;52.142;5.364;2023-02-22T05:04:16;6.30;82.00
69595;DHT22;56800;52.142;5.364;2023-02-22T05:06:43;6.30;82.00
69595;DHT22;56800;52.142;5.364;2023-02-22T05:09:10;6.30;82.00
69595;DHT22;56800;52.142;5.364;2023-02-22T05:11:36;6.20;82.10
69595;DHT22;56800;52.142;5.364;2023-02-22T05:14:03;6.20;82.10
69595;DHT22;56800;52.142;5.364;2023-02-22T05:16:30;6.20;82.20
69595;DHT22;56800;52.142;5.364;2023-02-22T05:18:56;6.20;82.30
69595;DHT22;56800;52.142;5.364;2023-02-22T05:21:23;6.20;82.40
69595;DHT22;56800;52.142;5.364;2023-02-22T05:23:50;6.20;82.50
69595;DHT22;56800;52.142;5.364;2023-02-22T05:26:16;6.20;82.60
69595;DHT22;56800;52.142;5.364;2023-02-22T05:28:44;6.20;82.50
69595;DHT22;56800;52.142;5.364;2023-02-22T05:31:11;6.20;82.50
69595;DHT22;56800;52.142;5.364;2023-02-22T05:33:37;6.20;82.50
69595;DHT22;56800;52.142;5.364;2023-02-22T05:36:05;6.10;82.40
69595;DHT22;56800;52.142;5.364;2023-02-22T05:38:33;6.20;82.50
69595;DHT22;56800;52.142;5.364;2023-02-22T05:41:00;6.20;82.70
69595;DHT22;56800;52.142;5.364;2023-02-22T05:43:26;6.10;82.70
69595;DHT22;56800;52.142;5.364;2023-02-22T05:45:53;6.10;82.70
69595;DHT22;56800;52.142;5.364;2023-02-22T05:48:21;6.10;82.70
69595;DHT22;56800;52.142;5.364;2023-02-22T05:50:48;6.20;82.90
69595;DHT22;56800;52.142;5.364;2023-02-22T05:53:15;6.10;82.90
69595;DHT22;56800;52.142;5.364;2023-02-22T05:55:42;6.20;82.90
69595;DHT22;56800;52.142;5.364;2023-02-22T05:58:11;6.10;82.90
69595;DHT22;56800;52.142;5.364;2023-02-22T06:00:38;6.20;83.10
69595;DHT22;56800;52.142;5.364;2023-02-22T06:03:06;6.10;83.00
69595;DHT22;56800;52.142;5.364;2023-02-22T06:05:35;6.10;83.00
69595;DHT22;56800;52.142;5.364;2023-02-22T06:08:04;6.20;83.30
69595;DHT22;56800;52.142;5.364;2023-02-22T06:10:31;6.20;83.30
69595;DHT22;56800;52.142;5.364;2023-02-22T06:12:59;6.10;83.20
69595;DHT22;56800;52.142;5.364;2023-02-22T06:15:27;6.20;83.30
69595;DHT22;56800;52.142;5.364;2023-02-22T06:17:54;6.20;83.40
69595;DHT22;56800;52.142;5.364;2023-02-22T06:20:23;6.10;83.40
69595;DHT22;56800;52.142;5.364;2023-02-22T06:22:51;6.10;83.30
69595;DHT22;56800;52.142;5.364;2023-02-22T06:25:21;6.10;83.30
69595;DHT22;56800;52.142;5.364;2023-02-22T06:27:49;6.10;83.40
69595;DHT22;56800;52.142;5.364;2023-02-22T06:30:18;6.10;83.50
69595;DHT22;56800;52.142;5.364;2023-02-22T06:32:45;6.10;83.60
69595;DHT22;56800;52.142;5.364;2023-02-22T06:35:13;6.10;83.60
69595;DHT22;56800;52.142;5.364;2023-02-22T06:37:40;6.10;83.70
69595;DHT22;56800;52.142;5.364;2023-02-22T06:40:07;6.00;83.80
69595;DHT22;56800;52.142;5.364;2023-02-22T06:42:33;6.10;83.90
69595;DHT22;56800;52.142;5.364;2023-02-22T06:45:00;6.10;84.00
69595;DHT22;56800;52.142;5.364;2023-02-22T06:47:27;6.10;84.00
69595;DHT22;56800;52.142;5.364;2023-02-22T06:49:54;6.10;83.90
69595;DHT22;56800;52.142;5.364;2023-02-22T06:52:22;6.10;83.90
69595;DHT22;56800;52.142;5.364;2023-02-22T06:54:49;6.00;84.00
69595;DHT22;56800;52.142;5.364;2023-02-22T06:57:16;6.10;84.20
69595;DHT22;56800;52.142;5.364;2023-02-22T06:59:43;6.10;84.30
69595;DHT22;56800;52.142;5.364;2023-02-22T07:02:11;6.10;84.20
69595;DHT22;56800;52.142;5.364;2023-02-22T07:04:38;6.10;84.20
69595;DHT22;56800;52.142;5.364;2023-02-22T07:07:08;6.10;84.20
69595;DHT22;56800;52.142;5.364;2023-02-22T07:09:35;6.10;84.20
69595;DHT22;56800;52.142;5.364;2023-02-22T07:12:02;6.20;84.30
69595;DHT22;56800;52.142;5.364;2023-02-22T07:14:29;6.20;84.50
69595;DHT22;56800;52.142;5.364;2023-02-22T07:16:55;6.20;84.50
69595;DHT22;56800;52.142;5.364;2023-02-22T07:19:22;6.20;84.40
69595;DHT22;56800;52.142;5.364;2023-02-22T07:21:50;6.20;84.40
69595;DHT22;56800;52.142;5.364;2023-02-22T07:24:20;6.20;84.60
69595;DHT22;56800;52.142;5.364;2023-02-22T07:26:47;6.20;84.60
69595;DHT22;56800;52.142;5.364;2023-02-22T07:29:14;6.20;84.60
69595;DHT22;56800;52.142;5.364;2023-02-22T07:31:40;6.30;84.60
69595;DHT22;56800;52.142;5.364;2023-02-22T07:34:07;6.30;84.50
69595;DHT22;56800;52.142;5.364;2023-02-22T07:36:34;6.30;84.50
69595;DHT22;56800;52.142;5.364;2023-02-22T07:39:00;6.30;84.50
69595;DHT22;56800;52.142;5.364;2023-02-22T07:41:27;6.40;84.60
69595;DHT22;56800;52.142;5.364;2023-02-22T07:43:53;6.40;84.50
69595;DHT22;56800;52.142;5.364;2023-02-22T07:46:20;6.40;84.50
69595;DHT22;56800;52.142;5.364;2023-02-22T07:48:47;6.40;84.50
69595;DHT22;56800;52.142;5.364;2023-02-22T07:51:15;6.40;84.40
69595;DHT22;56800;52.142;5.364;2023-02-22T07:53:42;6.40;84.50
69595;DHT22;56800;52.142;5.364;2023-02-22T07:56:09;6.40;84.40
69595;DHT22;56800;52.142;5.364;2023-02-22T07:58:36;6.40;84.40
69595;DHT22;56800;52.142;5.364;2023-02-22T08:01:03;6.50;84.40
69595;DHT22;56800;52.142;5.364;2023-02-22T08:03:32;6.50;84.50
69595;DHT22;56800;52.142;5.364;2023-02-22T08:06:04;6.50;84.50
69595;DHT22;56800;52.142;5.364;2023-02-22T08:08:31;6.50;84.50
69595;DHT22;56800;52.142;5.364;2023-02-22T08:10:58;6.50;84.50
69595;DHT22;56800;52.142;5.364;2023-02-22T08:13:25;6.50;84.50
69595;DHT22;56800;52.142;5.364;2023-02-22T08:15:53;6.50;84.50
69595;DHT22;56800;52.142;5.364;2023-02-22T08:18:21;6.50;84.50
69595;DHT22;56800;52.142;5.364;2023-02-22T08:20:49;6.50;84.60
69595;DHT22;56800;52.142;5.364;2023-02-22T08:23:18;6.50;84.70
69595;DHT22;56800;52.142;5.364;2023-02-22T08:25:46;6.50;84.50
69595;DHT22;56800;52.142;5.364;2023-02-22T08:28:15;6.50;84.70
69595;DHT22;56800;52.142;5.364;2023-02-22T08:30:43;6.60;84.90
69595;DHT22;56800;52.142;5.364;2023-02-22T08:33:11;6.60;84.80
69595;DHT22;56800;52.142;5.364;2023-02-22T08:35:40;6.60;84.90
69595;DHT22;56800;52.142;5.364;2023-02-22T08:38:14;6.60;84.70
69595;DHT22;56800;52.142;5.364;2023-02-22T08:40:41;6.60;84.60
69595;DHT22;56800;52.142;5.364;2023-02-22T08:43:07;6.60;84.70
69595;DHT22;56800;52.142;5.364;2023-02-22T08:45:34;6.70;84.70
69595;DHT22;56800;52.142;5.364;2023-02-22T08:48:01;6.60;84.60
69595;DHT22;56800;52.142;5.364;2023-02-22T08:50:30;6.70;84.70
69595;DHT22;56800;52.142;5.364;2023-02-22T08:53:00;6.70;84.60
69595;DHT22;56800;52.142;5.364;2023-02-22T08:55:30;6.70;84.50
69595;DHT22;56800;52.142;5.364;2023-02-22T08:57:58;6.70;84.60
69595;DHT22;56800;52.142;5.364;2023-02-22T09:00:27;6.70;84.50
69595;DHT22;56800;52.142;5.364;2023-02-22T09:02:55;6.70;84.60
69595;DHT22;56800;52.142;5.364;2023-02-22T09:05:21;6.70;84.70
69595;DHT22;56800;52.142;5.364;2023-02-22T09:07:48;6.80;84.80
69595;DHT22;56800;52.142;5.364;2023-02-22T09:10:24;6.80;84.80
69595;DHT22;56800;52.142;5.364;2023-02-22T09:12:52;6.90;84.80
69595;DHT22;56800;52.142;5.364;2023-02-22T09:15:22;6.90;84.90
69595;DHT22;56800;52.142;5.364;2023-02-22T09:17:50;7.00;84.80
69595;DHT22;56800;52.142;5.364;2023-02-22T09:20:18;7.00;84.80
69595;DHT22;56800;52.142;5.364;2023-02-22T09:22:46;7.10;84.80
69595;DHT22;56800;52.142;5.364;2023-02-22T09:25:14;7.10;84.70
69595;DHT22;56800;52.142;5.364;2023-02-22T09:27:43;7.20;84.60
69595;DHT22;56800;52.142;5.364;2023-02-22T09:32:45;7.20;84.60
69595;DHT22;56800;52.142;5.364;2023-02-22T09:35:12;7.30;84.60
69595;DHT22;56800;52.142;5.364;2023-02-22T09:37:39;7.40;84.60
69595;DHT22;56800;52.142;5.364;2023-02-22T09:40:06;7.40;84.40
69595;DHT22;56800;52.142;5.364;2023-02-22T09:42:43;7.50;84.40
69595;DHT22;56800;52.142;5.364;2023-02-22T09:45:24;7.50;84.30
69595;DHT22;56800;52.142;5.364;2023-02-22T09:47:56;7.60;84.10
69595;DHT22;56800;52.142;5.364;2023-02-22T09:50:36;7.60;84.20
69595;DHT22;56800;52.142;5.364;2023-02-22T09:55:51;7.80;84.60
69595;DHT22;56800;52.142;5.364;2023-02-22T09:58:30;8.00;84.60
69595;DHT22;56800;52.142;5.364;2023-02-22T10:01:23;8.10;84.60
69595;DHT22;56800;52.142;5.364;2023-02-22T10:04:08;8.30;84.10
69595;DHT22;56800;52.142;5.364;2023-02-22T10:06:38;8.40;83.40
69595;DHT22;56800;52.142;5.364;2023-02-22T10:09:05;8.50;83.30
69595;DHT22;56800;52.142;5.364;2023-02-22T10:11:54;8.60;83.70
69595;DHT22;56800;52.142;5.364;2023-02-22T10:17:47;9.00;83.20
69595;DHT22;56800;52.142;5.364;2023-02-22T10:20:49;9.30;83.60
69595;DHT22;56800;52.142;5.364;2023-02-22T10:23:47;9.80;83.50
69595;DHT22;56800;52.142;5.364;2023-02-22T10:26:21;10.30;82.30
69595;DHT22;56800;52.142;5.364;2023-02-22T10:29:03;10.70;81.30
69595;DHT22;56800;52.142;5.364;2023-02-22T10:31:33;11.20;80.20
69595;DHT22;56800;52.142;5.364;2023-02-22T10:34:04;11.30;78.70
69595;DHT22;56800;52.142;5.364;2023-02-22T10:36:33;11.40;77.60
69595;DHT22;56800;52.142;5.364;2023-02-22T10:39:27;11.20;76.90
69595;DHT22;56800;52.142;5.364;2023-02-22T10:41:58;10.90;76.60
69595;DHT22;56800;52.142;5.364;2023-02-22T10:44:32;10.70;77.20
69595;DHT22;56800;52.142;5.364;2023-02-22T10:47:09;10.60;77.60
69595;DHT22;56800;52.142;5.364;2023-02-22T10:49:42;10.40;77.80
69595;DHT22;56800;52.142;5.364;2023-02-22T10:52:32;10.40;77.90
69595;DHT22;56800;52.142;5.364;2023-02-22T10:55:01;10.30;77.80
69595;DHT22;56800;52.142;5.364;2023-02-22T10:57:42;10.30;77.90
69595;DHT22;56800;52.142;5.364;2023-02-22T11:00:21;10.20;77.80
69595;DHT22;56800;52.142;5.364;2023-02-22T11:02:55;10.10;77.40
69595;DHT22;56800;52.142;5.364;2023-02-22T11:05:27;10.10;77.50
69595;DHT22;56800;52.142;5.364;2023-02-22T11:10:51;10.10;77.80
69595;DHT22;56800;52.142;5.364;2023-02-22T11:15:52;10.10;77.80
69595;DHT22;56800;52.142;5.364;2023-02-22T11:18:30;10.10;77.60
69595;DHT22;56800;52.142;5.364;2023-02-22T11:21:05;10.10;77.80
69595;DHT22;56800;52.142;5.364;2023-02-22T11:23:34;10.10;77.80
69595;DHT22;56800;52.142;5.364;2023-02-22T11:26:11;10.00;77.40
69595;DHT22;56800;52.142;5.364;2023-02-22T11:28:43;10.00;77.70
69595;DHT22;56800;52.142;5.364;2023-02-22T11:31:17;10.10;78.10
69595;DHT22;56800;52.142;5.364;2023-02-22T11:33:55;10.10;78.00
69595;DHT22;56800;52.142;5.364;2023-02-22T11:36:34;10.20;78.00
69595;DHT22;56800;52.142;5.364;2023-02-22T11:39:24;10.30;77.50
69595;DHT22;56800;52.142;5.364;2023-02-22T11:41:51;10.30;76.90
69595;DHT22;56800;52.142;5.364;2023-02-22T11:44:27;10.30;76.80
69595;DHT22;56800;52.142;5.364;2023-02-22T11:46:56;10.20;76.40
69595;DHT22;56800;52.142;5.364;2023-02-22T11:49:38;10.30;76.60
69595;DHT22;56800;52.142;5.364;2023-02-22T11:52:39;10.30;77.50
69595;DHT22;56800;52.142;5.364;2023-02-22T11:55:36;10.30;76.20
69595;DHT22;56800;52.142;5.364;2023-02-22T11:58:25;10.30;76.80
69595;DHT22;56800;52.142;5.364;2023-02-22T12:01:07;10.20;76.20
69595;DHT22;56800;52.142;5.364;2023-02-22T12:06:22;10.20;76.30
69595;DHT22;56800;52.142;5.364;2023-02-22T12:09:07;10.20;76.30
69595;DHT22;56800;52.142;5.364;2023-02-22T12:11:57;10.20;76.30
69595;DHT22;56800;52.142;5.364;2023-02-22T12:14:50;10.30;76.70
69595;DHT22;56800;52.142;5.364;2023-02-22T12:23:17;10.40;76.70
69595;DHT22;56800;52.142;5.364;2023-02-22T12:25:59;10.40;76.40
69595;DHT22;56800;52.142;5.364;2023-02-22T12:28:34;10.40;76.30
69595;DHT22;56800;52.142;5.364;2023-02-22T12:31:14;10.50;76.50
69595;DHT22;56800;52.142;5.364;2023-02-22T12:45:41;11.00;76.20
69595;DHT22;56800;52.142;5.364;2023-02-22T12:51:24;11.10;75.40
69595;DHT22;56800;52.142;5.364;2023-02-22T12:53:57;11.10;75.30
69595;DHT22;56800;52.142;5.364;2023-02-22T12:59:13;11.10;74.80
69595;DHT22;56800;52.142;5.364;2023-02-22T13:01:45;11.10;74.40
69595;DHT22;56800;52.142;5.364;2023-02-22T13:04:15;11.10;74.50
69595;DHT22;56800;52.142;5.364;2023-02-22T13:18:08;11.20;74.80
69595;DHT22;56800;52.142;5.364;2023-02-22T13:20:58;11.20;74.40
69595;DHT22;56800;52.142;5.364;2023-02-22T13:23:46;11.20;74.40
69595;DHT22;56800;52.142;5.364;2023-02-22T13:26:27;11.20;74.40
69595;DHT22;56800;52.142;5.364;2023-02-22T13:29:07;11.30;74.80
69595;DHT22;56800;52.142;5.364;2023-02-22T13:37:52;11.30;74.50
69595;DHT22;56800;52.142;5.364;2023-02-22T13:40:41;11.30;74.50
69595;DHT22;56800;52.142;5.364;2023-02-22T13:43:33;11.30;74.30
69595;DHT22;56800;52.142;5.364;2023-02-22T13:51:47;11.30;74.20
69595;DHT22;56800;52.142;5.364;2023-02-22T13:54:16;11.20;74.10
69595;DHT22;56800;52.142;5.364;2023-02-22T13:56:45;11.20;74.20
69595;DHT22;56800;52.142;5.364;2023-02-22T13:59:34;11.20;74.30
69595;DHT22;56800;52.142;5.364;2023-02-22T14:02:04;11.20;74.50
69595;DHT22;56800;52.142;5.364;2023-02-22T14:04:32;11.20;74.60
69595;DHT22;56800;52.142;5.364;2023-02-22T14:07:01;11.20;74.60
69595;DHT22;56800;52.142;5.364;2023-02-22T14:18:03;11.30;74.80
69595;DHT22;56800;52.142;5.364;2023-02-22T14:20:37;11.30;74.50
69595;DHT22;56800;52.142;5.364;2023-02-22T14:23:44;11.20;74.20
69595;DHT22;56800;52.142;5.364;2023-02-22T14:34:37;11.20;74.30
69595;DHT22;56800;52.142;5.364;2023-02-22T14:37:08;11.20;74.40
69595;DHT22;56800;52.142;5.364;2023-02-22T14:42:31;11.20;74.20
69595;DHT22;56800;52.142;5.364;2023-02-22T14:45:04;11.20;74.20
69595;DHT22;56800;52.142;5.364;2023-02-22T14:50:49;11.20;74.00
69595;DHT22;56800;52.142;5.364;2023-02-22T14:53:26;11.20;74.10
69595;DHT22;56800;52.142;5.364;2023-02-22T15:01:31;11.10;74.10
69595;DHT22;56800;52.142;5.364;2023-02-22T15:04:21;11.20;74.20
69595;DHT22;56800;52.142;5.364;2023-02-22T15:06:49;11.10;74.10
69595;DHT22;56800;52.142;5.364;2023-02-22T15:09:29;11.10;74.20
69595;DHT22;56800;52.142;5.364;2023-02-22T15:14:32;11.10;74.40
69595;DHT22;56800;52.142;5.364;2023-02-22T15:17:07;11.10;74.40
69595;DHT22;56800;52.142;5.364;2023-02-22T15:19:38;11.10;74.60
69595;DHT22;56800;52.142;5.364;2023-02-22T15:22:05;11.10;74.60
69595;DHT22;56800;52.142;5.364;2023-02-22T15:24:44;11.10;74.60
69595;DHT22;56800;52.142;5.364;2023-02-22T15:27:15;11.10;74.50
69595;DHT22;56800;52.142;5.364;2023-02-22T15:29:45;11.20;74.50
69595;DHT22;56800;52.142;5.364;2023-02-22T15:32:39;11.10;74.40
69595;DHT22;56800;52.142;5.364;2023-02-22T15:35:29;11.10;75.30
69595;DHT22;56800;52.142;5.364;2023-02-22T15:40:38;11.10;74.80
69595;DHT22;56800;52.142;5.364;2023-02-22T15:43:21;11.10;74.70
69595;DHT22;56800;52.142;5.364;2023-02-22T15:45:54;11.10;74.80
69595;DHT22;56800;52.142;5.364;2023-02-22T15:48:21;11.10;74.80
69595;DHT22;56800;52.142;5.364;2023-02-22T15:51:08;11.10;75.00
69595;DHT22;56800;52.142;5.364;2023-02-22T15:53:46;11.10;75.00
69595;DHT22;56800;52.142;5.364;2023-02-22T15:56:23;11.00;74.80
69595;DHT22;56800;52.142;5.364;2023-02-22T15:58:51;11.10;74.90
69595;DHT22;56800;52.142;5.364;2023-02-22T16:01:24;11.00;74.80
69595;DHT22;56800;52.142;5.364;2023-02-22T16:03:56;11.00;74.90
69595;DHT22;56800;52.142;5.364;2023-02-22T16:08:55;10.90;74.80
69595;DHT22;56800;52.142;5.364;2023-02-22T16:11:38;10.90;74.90
69595;DHT22;56800;52.142;5.364;2023-02-22T16:17:18;10.80;75.10
69595;DHT22;56800;52.142;5.364;2023-02-22T16:19:51;10.80;75.10
69595;DHT22;56800;52.142;5.364;2023-02-22T16:22:34;10.80;75.10
69595;DHT22;56800;52.142;5.364;2023-02-22T16:25:25;10.80;75.10
69595;DHT22;56800;52.142;5.364;2023-02-22T16:27:56;10.70;75.20
69595;DHT22;56800;52.142;5.364;2023-02-22T16:30:32;10.60;75.20
69595;DHT22;56800;52.142;5.364;2023-02-22T16:33:03;10.60;75.30
69595;DHT22;56800;52.142;5.364;2023-02-22T16:35:31;10.60;75.30
69595;DHT22;56800;52.142;5.364;2023-02-22T16:38:05;10.50;75.40
69595;DHT22;56800;52.142;5.364;2023-02-22T16:40:38;10.50;75.50
69595;DHT22;56800;52.142;5.364;2023-02-22T16:43:16;10.40;76.30
69595;DHT22;56800;52.142;5.364;2023-02-22T16:45:44;10.40;75.60
69595;DHT22;56800;52.142;5.364;2023-02-22T16:48:17;10.40;75.70
69595;DHT22;56800;52.142;5.364;2023-02-22T16:50:45;10.40;75.80
69595;DHT22;56800;52.142;5.364;2023-02-22T16:53:12;10.40;75.90
69595;DHT22;56800;52.142;5.364;2023-02-22T16:55:41;10.30;75.80
69595;DHT22;56800;52.142;5.364;2023-02-22T16:58:14;10.30;75.90
69595;DHT22;56800;52.142;5.364;2023-02-22T17:00:41;10.30;75.90
69595;DHT22;56800;52.142;5.364;2023-02-22T17:03:13;10.20;76.00
69595;DHT22;56800;52.142;5.364;2023-02-22T17:05:41;10.20;75.90
69595;DHT22;56800;52.142;5.364;2023-02-22T17:08:08;10.10;76.00
69595;DHT22;56800;52.142;5.364;2023-02-22T17:10:34;10.10;76.10
69595;DHT22;56800;52.142;5.364;2023-02-22T17:13:02;10.10;76.20
69595;DHT22;56800;52.142;5.364;2023-02-22T17:15:47;10.10;76.30
69595;DHT22;56800;52.142;5.364;2023-02-22T17:18:15;10.00;76.40
69595;DHT22;56800;52.142;5.364;2023-02-22T17:20:42;10.10;76.50
69595;DHT22;56800;52.142;5.364;2023-02-22T17:23:10;10.00;76.60
69595;DHT22;56800;52.142;5.364;2023-02-22T17:25:52;10.00;76.60
69595;DHT22;56800;52.142;5.364;2023-02-22T17:28:20;10.00;76.70
69595;DHT22;56800;52.142;5.364;2023-02-22T17:30:47;10.00;76.70
69595;DHT22;56800;52.142;5.364;2023-02-22T17:33:20;10.00;76.90
69595;DHT22;56800;52.142;5.364;2023-02-22T17:35:47;10.00;76.90
69595;DHT22;56800;52.142;5.364;2023-02-22T17:38:14;10.00;77.00
69595;DHT22;56800;52.142;5.364;2023-02-22T17:40:46;9.90;77.00
69595;DHT22;56800;52.142;5.364;2023-02-22T17:43:14;9.90;77.00
69595;DHT22;56800;52.142;5.364;2023-02-22T17:45:41;9.90;77.10
69595;DHT22;56800;52.142;5.364;2023-02-22T17:48:08;9.90;77.20
69595;DHT22;56800;52.142;5.364;2023-02-22T17:50:37;9.90;77.20
69595;DHT22;56800;52.142;5.364;2023-02-22T17:53:04;10.00;77.30
69595;DHT22;56800;52.142;5.364;2023-02-22T17:55:31;10.00;77.30
69595;DHT22;56800;52.142;5.364;2023-02-22T17:58:00;10.00;77.40
69595;DHT22;56800;52.142;5.364;2023-02-22T18:00:29;10.00;77.40
69595;DHT22;56800;52.142;5.364;2023-02-22T18:03:07;10.00;77.50
69595;DHT22;56800;52.142;5.364;2023-02-22T18:05:43;9.90;77.50
69595;DHT22;56800;52.142;5.364;2023-02-22T18:08:12;10.00;77.50
69595;DHT22;56800;52.142;5.364;2023-02-22T18:10:39;10.00;77.50
69595;DHT22;56800;52.142;5.364;2023-02-22T18:13:08;9.90;77.50
69595;DHT22;56800;52.142;5.364;2023-02-22T18:15:38;10.00;77.70
69595;DHT22;56800;52.142;5.364;2023-02-22T18:18:05;9.90;77.70